• Join FlightAware (Why Join?)
  • Login
  • US Flag 
10:57PM EDT


 

Airport Tracker/Info


-or-


 

Live Flight TrackerFlight Track Log ✈ TCF3494 ✈ 16-Sep-2013 ✈ KDEN - KSLC

Flight Track Log - Related Links

Times and Time Zones

All times are in EDT time to prevent confusion due to time zone crossing. See the TCF3494 flight status page for this flight to view local times or setup timezone preferences in your user account.

Time Position Orientation Groundspeed Altitude Reporting Facility
EDT Latitude Longitude Course Direction KTS MPH feet Rate Location/Type
10:16AM 39.7667 -104.6833 191° South 203 234 7,700  Level Denver TRACON
10:17AM 39.7000 -104.7000 191° South 273 314 9,700 2,160 Climbing Denver TRACON
10:18AM 39.6333 -104.7333 201° Southwest 312 359 12,100 2,400 Climbing Denver TRACON
10:19AM 39.6333 -104.8333 270° West 306 352 14,600 1,620 Climbing Denver TRACON
10:20AM 39.6564 -104.8822 302° West 312 359 14,900 1,620 Climbing Denver Center
10:21AM 39.7156 -105.0339 297° West 372 428 17,400 2,100 Climbing Denver Center
10:22AM 39.7653 -105.1547 298° West 380 437 19,300 1,800 Climbing Denver Center
10:23AM 39.8142 -105.2803 297° West 389 448 21,200 1,980 Climbing Denver Center
10:24AM 39.8689 -105.4206 297° West 403 464 23,400 1,740 Climbing Denver Center
10:25AM 39.8911 -105.5694 281° West 403 464 24,900 1,500 Climbing Denver Center
10:26AM 39.9031 -105.7192 276° West 415 478 26,500 1,380 Climbing Denver Center
10:27AM 39.9167 -105.8683 277° West 415 478 27,800 1,200 Climbing Denver Center
10:28AM 39.9289 -106.0228 276° West 427 491 29,100 1,020 Climbing Denver Center
10:29AM 39.9406 -106.1789 276° West 433 498 30,000 960 Climbing Denver Center
10:30AM 39.9536 -106.3386 276° West 443 510 31,200 1,140 Climbing Denver Center
10:31AM 39.9675 -106.5181 276° West 433 498 32,400 900 Climbing Denver Center
10:32AM 39.9806 -106.6686 277° West 436 502 33,100 1,200 Climbing Denver Center
10:33AM 39.9936 -106.8433 276° West 432 497 35,000 1,260 Climbing Denver Center
10:34AM 40.0031 -106.9869 275° West 418 481 35,800 480 Climbing Denver Center
10:35AM 40.0158 -107.1553 276° West 418 481 36,000 60 Climbing Denver Center
10:36AM 40.0269 -107.3028 276° West 426 490 36,000  Level Denver Center
10:37AM 40.0372 -107.4747 275° West 427 491 36,000  Level Denver Center
10:39AM 40.0481 -107.6192 276° West 419 482 36,000  Level Denver Center
10:40AM 40.0581 -107.7897 274° West 421 484 36,000  Level Denver Center
10:41AM 40.0697 -107.9361 276° West 424 488 36,000  Level Denver Center
10:42AM 40.0775 -108.1050 273° West 420 483 36,000  Level Denver Center
10:43AM 40.0828 -108.2500 273° West 420 483 36,000  Level Denver Center
10:44AM 40.0911 -108.4211 274° West 422 486 36,000  Level Denver Center
10:45AM 40.0958 -108.5675 272° West 425 489 36,000  Level Denver Center
10:46AM 40.1025 -108.7389 273° West 427 491 36,000  Level Denver Center
10:47AM 40.1083 -108.8869 273° West 427 491 36,000  Level Denver Center
10:48AM 40.1147 -109.0586 273° West 427 491 36,000  Level Denver Center
10:48AM 40.1178 -109.1328 273° West 427 491 36,000  Level Salt Lake Center
10:49AM 40.1233 -109.3050 272° West 427 491 36,000 -120 Level Salt Lake Center
10:51AM 40.1286 -109.4525 273° West 427 491 35,800 -480 Descending Salt Lake Center
10:52AM 40.1333 -109.6214 272° West 420 483 35,100 -720 Descending Salt Lake Center
10:53AM 40.1378 -109.7694 272° West 424 488 34,400 -720 Descending Salt Lake Center
10:54AM 40.1414 -109.9439 272° West 430 495 33,700 -660 Descending Salt Lake Center
10:55AM 40.1253 -110.0939 262° West 435 501 33,100 -660 Descending Salt Lake Center
10:56AM 40.1058 -110.2681 262° West 435 501 32,400 -720 Descending Salt Lake Center
10:57AM 40.0914 -110.4189 263° West 438 504 31,700 -780 Descending Salt Lake Center
10:58AM 40.0858 -110.5961 268° West 439 505 30,800 -1,380 Descending Salt Lake Center
10:59AM 40.0800 -110.7472 267° West 438 504 28,900 -1,980 Descending Salt Lake Center
11:00AM 40.0722 -110.9219 267° West 433 498 26,800 -1,860 Descending Salt Lake Center
11:01AM 40.0681 -111.0761 268° West 420 483 25,100 -1,740 Descending Salt Lake Center
11:02AM 40.0792 -111.2236 276° West 409 471 23,300 -1,920 Descending Salt Lake Center
11:03AM 40.0914 -111.3361 278° West 387 445 21,800 -1,860 Descending Salt Lake Center
11:03AM 40.1008 -111.3589 298° West 384 442 21,400 -1,920 Descending Salt Lake Center
11:04AM 40.1122 -111.4694 278° West 381 438 19,900 -1,860 Descending Salt Lake Center
11:04AM 40.1217 -111.4936 297° West 378 435 19,500 -1,380 Descending Salt Lake Center
11:05AM 40.1478 -111.5922 289° West 366 421 18,500 -1,500 Descending Salt Lake Center
11:05AM 40.1672 -111.6100 325° Northwest 373 429 18,000 -1,980 Descending Salt Lake Center
11:06AM 40.2197 -111.6714 318° Northwest 364 419 16,700 -1,980 Descending Salt Lake Center
11:06AM 40.2631 -111.7042 330° Northwest 361 415 16,000 -1,200 Descending Salt Lake Center
11:07AM 40.3161 -111.7650 319° Northwest 349 402 15,300 -1,020 Descending Salt Lake Center
11:07AM 40.3392 -111.7819 331° Northwest 348 400 15,000 -420 Descending Salt Lake Center
11:08AM 40.3942 -111.8428 320° Northwest 342 394 14,900 -420 Descending Salt Lake Center
11:08AM 40.4147 -111.8572 332° Northwest 343 395 14,600 -1,440 Descending Salt Lake Center
11:09AM 40.4853 -111.9331 321° Northwest 341 392 13,200 -1,380 Descending Salt Lake Center
11:09AM 40.4900 -111.9325 North 339 390 13,200 -1,320 Level Salt Lake Center
11:10AM 40.5361 -111.9836 320° Northwest 338 389 12,300 -1,380 Descending Salt Lake Center
11:10AM 40.5636 -112.0072 327° Northwest 333 383 11,800 -1,320 Descending Salt Lake Center
11:11AM 40.6089 -112.0578 320° Northwest 332 382 11,000 -780 Descending Salt Lake Center
11:11AM 40.6386 -112.0761 335° Northwest 328 377 11,000  Level Salt Lake Center
11:12AM 40.6944 -112.0881 351° North 323 372 11,000  Level Salt Lake Center
11:12AM 40.7261 -112.0886 359° North 312 359 11,000  Level Salt Lake Center
11:13AM 40.7714 -112.0961 353° North 254 292 11,000  Level Salt Lake Center
11:13AM 40.8094 -112.0992 357° North 249 287 11,000  Level Salt Lake Center
11:14AM 40.8422 -112.1061 351° North 257 296 11,000 -540 Level Salt Lake Center
11:14AM 40.8800 -112.1075 358° North 253 291 10,500 -1,860 Descending Salt Lake Center
11:15AM 40.9211 -112.1133 354° North 248 285 9,000 -2,160 Descending Salt Lake Center
11:15AM 40.9483 -112.1069 10° North 251 289 8,300 -1,680 Descending Salt Lake Center
11:16AM 40.9647 -112.0617 64° Northeast 246 283 7,300 -1,500 Descending Salt Lake Center
11:16AM 40.9519 -112.0328 120° Southeast 233 268 6,800 -1,140 Descending Salt Lake Center
11:17AM 40.9311 -112.0219 159° South 215 247 6,400 -780 Descending Salt Lake Center
11:17AM 40.9011 -112.0103 164° South 193 222 6,000 -840 Descending Salt Lake Center
11:18AM 40.8836 -112.0097 179° South 168 193 5,600 -900 Descending Salt Lake Center
11:18AM 40.8600 -112.0058 173° South 149 171 5,100 -840 Descending Salt Lake Center
11:19AM 40.8436 -112.0036 174° South 136 157 4,800 -720 Descending Salt Lake Center
11:19AM 40.8161 -111.9994 173° South 134 154 4,400 -540 Descending Salt Lake Center